createdAt,value
2022-08-17T00:00:10.992Z,6.25
2022-08-17T00:02:56.291Z,6.10
2022-08-17T00:05:22.552Z,5.90
2022-08-17T00:07:48.882Z,6.10
2022-08-17T00:10:15.120Z,5.95
2022-08-17T00:12:44.538Z,5.85
2022-08-17T00:15:10.897Z,5.03
2022-08-17T00:17:37.073Z,5.63
2022-08-17T00:20:03.292Z,4.82
2022-08-17T00:22:34.759Z,4.97
2022-08-17T00:25:02.185Z,5.43
2022-08-17T00:27:28.397Z,4.88
2022-08-17T00:29:54.629Z,5.65
2022-08-17T00:33:14.004Z,5.15
2022-08-17T00:35:07.027Z,4.85
2022-08-17T00:37:33.190Z,5.78
2022-08-17T00:39:59.510Z,5.80
2022-08-17T00:42:30.784Z,5.22
2022-08-17T00:44:57.363Z,5.63
2022-08-17T00:47:23.609Z,5.90
2022-08-17T00:49:49.772Z,5.38
2022-08-17T00:52:15.997Z,5.97
2022-08-17T00:54:42.533Z,5.40
2022-08-17T00:57:08.850Z,6.03
2022-08-17T00:59:35.040Z,6.05
2022-08-17T01:02:01.232Z,5.80
2022-08-17T01:04:27.431Z,5.70
2022-08-17T01:06:53.629Z,5.45
2022-08-17T01:09:19.834Z,5.88
2022-08-17T01:11:46.016Z,5.78
2022-08-17T01:14:12.184Z,5.38
2022-08-17T01:16:38.367Z,6.63
2022-08-17T01:19:04.537Z,5.95
2022-08-17T01:21:30.896Z,6.57
2022-08-17T01:23:57.095Z,6.25
2022-08-17T01:26:23.301Z,5.55
2022-08-17T01:28:53.876Z,5.57
2022-08-17T01:31:21.383Z,6.22
2022-08-17T01:33:47.572Z,7.35
2022-08-17T01:36:13.777Z,6.53
2022-08-17T01:38:39.965Z,5.53
2022-08-17T01:41:06.167Z,6.28
2022-08-17T01:43:32.348Z,5.75
2022-08-17T01:46:03.738Z,5.90
2022-08-17T01:48:30.284Z,5.60
2022-08-17T01:50:58.766Z,5.22
2022-08-17T01:53:24.952Z,5.90
2022-08-17T01:55:51.131Z,5.55
2022-08-17T01:58:20.231Z,5.82
2022-08-17T02:01:00.762Z,5.90
2022-08-17T02:03:36.644Z,5.70
2022-08-17T02:06:02.825Z,5.68
2022-08-17T02:08:37.257Z,5.97
2022-08-17T02:11:05.570Z,5.88
2022-08-17T02:13:37.617Z,5.68
2022-08-17T02:16:03.792Z,6.38
2022-08-17T02:18:40.339Z,5.45
2022-08-17T02:21:06.515Z,5.55
2022-08-17T02:23:32.697Z,5.80
2022-08-17T02:25:58.871Z,6.05
2022-08-17T02:28:25.050Z,6.22
2022-08-17T02:31:01.383Z,6.38
2022-08-17T02:33:43.089Z,6.10
2022-08-17T02:36:09.897Z,5.80
2022-08-17T02:38:36.091Z,5.78
2022-08-17T02:41:02.278Z,6.13
2022-08-17T02:43:28.444Z,5.82
2022-08-17T02:45:54.624Z,6.13
2022-08-17T02:48:30.773Z,5.47
2022-08-17T02:50:58.080Z,6.05
2022-08-17T02:53:24.259Z,6.13
2022-08-17T02:55:51.990Z,5.75
2022-08-17T02:58:18.873Z,5.60
2022-08-17T03:01:01.080Z,5.80
2022-08-17T03:03:27.243Z,5.80
2022-08-17T03:05:53.634Z,6.07
2022-08-17T03:08:19.838Z,6.18
2022-08-17T03:10:46.072Z,6.25
2022-08-17T03:13:12.288Z,5.85
2022-08-17T03:15:38.590Z,6.18
2022-08-17T03:18:14.375Z,5.75
2022-08-17T03:20:45.587Z,6.15
2022-08-17T03:23:11.779Z,6.50
2022-08-17T03:25:37.947Z,6.82
2022-08-17T03:28:04.865Z,6.78
2022-08-17T03:30:31.091Z,6.57
2022-08-17T03:32:57.301Z,6.05
2022-08-17T03:35:23.548Z,6.43
2022-08-17T03:38:00.890Z,6.63
2022-08-17T03:40:55.305Z,6.65
2022-08-17T03:43:13.582Z,6.50
2022-08-17T03:45:39.809Z,6.85
2022-08-17T03:48:06.019Z,7.85
2022-08-17T03:50:32.208Z,6.60
2022-08-17T03:52:58.489Z,7.00
2022-08-17T03:55:24.780Z,6.88
2022-08-17T03:58:02.615Z,6.60
2022-08-17T04:00:28.819Z,6.70
2022-08-17T04:02:54.969Z,6.32
2022-08-17T04:05:21.146Z,5.80
2022-08-17T04:07:47.335Z,5.95
2022-08-17T04:10:13.505Z,5.05
2022-08-17T04:12:39.700Z,5.72
2022-08-17T04:15:05.872Z,5.10
2022-08-17T04:17:32.069Z,4.72
2022-08-17T04:19:58.431Z,6.10
2022-08-17T04:22:32.945Z,4.93
2022-08-17T04:25:00.331Z,5.18
2022-08-17T04:27:26.541Z,5.05
2022-08-17T04:29:55.301Z,4.65
2022-08-17T04:32:59.183Z,5.20
2022-08-17T04:35:08.098Z,4.82
2022-08-17T04:37:34.280Z,4.85
2022-08-17T04:40:03.971Z,4.80
2022-08-17T04:42:30.580Z,4.30
2022-08-17T04:44:56.787Z,4.40
2022-08-17T04:47:22.984Z,4.70
2022-08-17T04:49:49.158Z,4.43
2022-08-17T04:52:32.338Z,4.95
2022-08-17T04:55:01.843Z,4.90
2022-08-17T04:57:28.084Z,5.10
2022-08-17T04:59:54.243Z,4.63
2022-08-17T05:02:20.478Z,4.63
2022-08-17T05:04:46.661Z,5.15
2022-08-17T05:07:12.869Z,5.35
2022-08-17T05:09:39.114Z,4.40
2022-08-17T05:12:05.271Z,4.85
2022-08-17T05:14:37.725Z,4.95
2022-08-17T05:17:07.227Z,5.30
2022-08-17T05:19:37.424Z,5.07
2022-08-17T05:24:53.636Z,4.43
2022-08-17T05:27:21.723Z,4.93
2022-08-17T05:29:49.714Z,4.20
2022-08-17T05:32:39.084Z,4.85
2022-08-17T05:35:02.098Z,4.95
2022-08-17T05:40:19.018Z,4.82
2022-08-17T05:42:45.192Z,4.68
2022-08-17T05:45:11.382Z,4.65
2022-08-17T05:47:38.666Z,4.57
2022-08-17T05:50:09.841Z,4.60
2022-08-17T05:52:36.228Z,4.15
2022-08-17T05:55:02.625Z,4.20
2022-08-17T05:57:28.856Z,5.43
2022-08-17T05:59:55.580Z,4.30
2022-08-17T06:02:21.945Z,4.93
2022-08-17T06:04:48.233Z,4.65
2022-08-17T06:07:14.533Z,5.50
2022-08-17T06:09:40.747Z,4.45
2022-08-17T06:12:06.989Z,4.95
2022-08-17T06:14:40.637Z,4.95
2022-08-17T06:17:06.882Z,4.78
2022-08-17T06:19:33.090Z,4.30
2022-08-17T06:21:59.321Z,4.50
2022-08-17T06:24:26.345Z,4.90
2022-08-17T06:26:52.568Z,4.45
2022-08-17T06:29:19.097Z,4.70
2022-08-17T06:31:45.398Z,4.82
2022-08-17T06:34:11.744Z,4.80
2022-08-17T06:36:37.980Z,4.80
2022-08-17T06:39:04.165Z,6.00
2022-08-17T06:41:30.480Z,4.82
2022-08-17T06:43:56.731Z,4.57
2022-08-17T06:46:22.925Z,5.18
2022-08-17T06:48:49.181Z,4.88
2022-08-17T06:51:15.416Z,5.57
2022-08-17T06:53:41.635Z,5.05
2022-08-17T06:56:07.860Z,5.03
2022-08-17T06:58:34.141Z,5.35
2022-08-17T07:01:00.342Z,4.57
2022-08-17T07:03:26.563Z,5.20
2022-08-17T07:05:52.729Z,4.65
2022-08-17T07:08:18.925Z,5.97
2022-08-17T07:10:45.126Z,5.32
2022-08-17T07:13:11.308Z,4.47
2022-08-17T07:15:37.521Z,5.35
2022-08-17T07:18:03.829Z,5.32
2022-08-17T07:20:30.065Z,5.10
2022-08-17T07:23:00.007Z,5.43
2022-08-17T07:25:26.817Z,5.88
2022-08-17T07:27:53.068Z,5.63
2022-08-17T07:30:19.242Z,6.57
2022-08-17T07:32:45.457Z,6.78
2022-08-17T07:35:11.777Z,5.85
2022-08-17T07:37:38.017Z,5.47
2022-08-17T07:40:16.309Z,5.38
2022-08-17T07:42:46.681Z,5.78
2022-08-17T07:45:12.992Z,5.65
2022-08-17T07:47:39.198Z,5.90
2022-08-17T07:50:05.425Z,5.68
2022-08-17T07:52:50.843Z,5.95
2022-08-17T07:55:17.787Z,5.78
2022-08-17T07:57:44.068Z,5.43
2022-08-17T08:00:13.485Z,6.07
2022-08-17T08:02:42.668Z,5.63
2022-08-17T08:05:09.030Z,5.32
2022-08-17T08:07:36.353Z,5.75
2022-08-17T08:10:02.534Z,5.45
2022-08-17T08:12:33.703Z,5.47
2022-08-17T08:15:00.155Z,5.45
2022-08-17T08:17:26.367Z,4.97
2022-08-17T08:19:52.837Z,6.05
2022-08-17T08:22:19.025Z,5.63
2022-08-17T08:24:45.274Z,5.30
2022-08-17T08:27:11.549Z,5.20
2022-08-17T08:29:37.724Z,5.32
2022-08-17T08:32:03.919Z,5.60
2022-08-17T08:35:00.735Z,5.30
2022-08-17T08:37:22.640Z,5.45
2022-08-17T08:39:51.346Z,5.85
2022-08-17T08:42:17.592Z,5.93
2022-08-17T08:45:00.064Z,6.10
2022-08-17T08:47:29.955Z,6.03
2022-08-17T08:50:04.839Z,5.95
2022-08-17T08:52:31.702Z,6.50
2022-08-17T08:54:57.907Z,7.00
2022-08-17T08:57:28.033Z,6.50
2022-08-17T08:59:59.190Z,7.13
2022-08-17T09:02:25.372Z,6.78
2022-08-17T09:05:13.318Z,6.85
2022-08-17T09:07:37.773Z,6.43
2022-08-17T09:10:03.984Z,7.15
2022-08-17T09:12:30.204Z,6.22
2022-08-17T09:14:56.386Z,7.05
2022-08-17T09:17:22.597Z,5.85
2022-08-17T09:19:48.833Z,6.05
2022-08-17T09:22:15.014Z,7.50
2022-08-17T09:24:41.208Z,6.13
2022-08-17T09:27:07.438Z,5.82
2022-08-17T09:29:33.707Z,6.22
2022-08-17T09:31:59.911Z,7.28
2022-08-17T09:34:31.979Z,5.88
2022-08-17T09:36:59.513Z,5.78
2022-08-17T09:39:25.746Z,5.57
2022-08-17T09:41:51.936Z,5.97
2022-08-17T09:44:23.103Z,5.85
2022-08-17T09:46:50.029Z,6.30
2022-08-17T09:49:16.231Z,5.80
2022-08-17T09:51:42.426Z,6.15
2022-08-17T09:54:37.083Z,5.25
2022-08-17T09:57:18.141Z,7.32
2022-08-17T09:59:40.937Z,5.25
2022-08-17T10:02:08.087Z,7.22
2022-08-17T10:04:39.514Z,5.47
2022-08-17T10:07:05.694Z,6.10
2022-08-17T10:09:31.874Z,5.40
2022-08-17T10:11:58.761Z,6.40
2022-08-17T10:14:36.394Z,5.88
2022-08-17T10:17:04.356Z,5.57
2022-08-17T10:19:30.569Z,7.03
2022-08-17T10:22:00.958Z,6.72
2022-08-17T10:26:56.801Z,6.70
2022-08-17T10:29:23.644Z,6.88
2022-08-17T10:31:53.078Z,7.38
2022-08-17T10:34:19.311Z,6.88
2022-08-17T10:36:45.513Z,6.50
2022-08-17T10:39:11.685Z,6.05
2022-08-17T10:41:40.307Z,6.78
2022-08-17T10:44:39.095Z,5.50
2022-08-17T10:46:52.962Z,6.57
2022-08-17T10:49:19.148Z,6.03
2022-08-17T10:51:45.335Z,5.80
2022-08-17T10:54:12.784Z,5.45
2022-08-17T10:56:38.975Z,5.72
2022-08-17T10:59:05.179Z,7.82
2022-08-17T11:01:31.370Z,5.72
2022-08-17T11:03:57.546Z,6.13
2022-08-17T11:06:23.764Z,5.78
2022-08-17T11:08:49.988Z,5.75
2022-08-17T11:11:16.333Z,5.85
2022-08-17T11:13:42.611Z,5.15
2022-08-17T11:16:08.817Z,6.53
2022-08-17T11:18:34.982Z,5.45
2022-08-17T11:21:01.144Z,4.85
2022-08-17T11:23:27.370Z,5.07
2022-08-17T11:25:53.621Z,4.63
2022-08-17T11:28:19.826Z,4.30
2022-08-17T11:30:46.042Z,4.45
2022-08-17T11:33:12.314Z,4.15
2022-08-17T11:35:38.503Z,3.88
2022-08-17T11:38:04.739Z,4.28
2022-08-17T11:40:31.439Z,4.88
2022-08-17T11:42:57.615Z,5.20
2022-08-17T11:45:32.566Z,5.22
2022-08-17T11:48:26.080Z,5.38
2022-08-17T11:50:45.303Z,4.72
2022-08-17T11:53:11.530Z,5.63
2022-08-17T11:55:42.998Z,5.13
2022-08-17T11:58:11.186Z,5.10
2022-08-17T12:00:37.419Z,5.20
2022-08-17T12:03:03.772Z,4.85
2022-08-17T12:05:30.095Z,4.50
2022-08-17T12:07:56.285Z,4.60
2022-08-17T12:10:22.452Z,4.43
2022-08-17T12:12:48.673Z,5.40
2022-08-17T12:17:59.047Z,5.30
2022-08-17T12:20:25.437Z,4.75
2022-08-17T12:22:51.640Z,4.30
2022-08-17T12:25:17.832Z,4.30
2022-08-17T12:28:04.910Z,5.15
2022-08-17T12:30:30.282Z,4.30
2022-08-17T12:32:56.459Z,4.35
2022-08-17T12:35:22.714Z,4.95
2022-08-17T12:37:49.173Z,4.75
2022-08-17T12:40:15.593Z,4.75
2022-08-17T12:42:42.152Z,4.45
2022-08-17T12:45:08.397Z,4.40
2022-08-17T12:47:34.666Z,4.30
2022-08-17T12:50:00.980Z,4.50
2022-08-17T12:52:27.283Z,4.55
2022-08-17T12:54:53.559Z,4.13
2022-08-17T12:57:19.750Z,4.63
2022-08-17T12:59:46.028Z,4.40
2022-08-17T13:02:12.391Z,4.30
2022-08-17T13:04:38.626Z,3.63
2022-08-17T13:07:04.834Z,4.30
2022-08-17T13:09:40.069Z,3.72
2022-08-17T13:12:07.772Z,3.85
2022-08-17T13:14:34.269Z,3.92
2022-08-17T13:17:00.557Z,4.13
2022-08-17T13:19:39.811Z,4.30
2022-08-17T13:22:08.559Z,4.40
2022-08-17T13:24:38.167Z,4.40
2022-08-17T13:27:07.806Z,4.20
2022-08-17T13:29:34.624Z,4.18
2022-08-17T13:32:04.965Z,3.70
2022-08-17T13:34:34.154Z,3.95
2022-08-17T13:39:34.405Z,4.45
2022-08-17T13:42:00.584Z,3.88
2022-08-17T13:44:26.821Z,3.80
2022-08-17T13:46:56.976Z,3.72
2022-08-17T13:49:23.650Z,4.05
2022-08-17T13:51:49.915Z,4.25
2022-08-17T13:54:16.185Z,3.88
2022-08-17T13:56:42.455Z,3.85
2022-08-17T13:59:08.721Z,3.72
2022-08-17T14:01:34.969Z,4.10
2022-08-17T14:04:01.218Z,3.63
2022-08-17T14:06:51.765Z,4.55
2022-08-17T14:09:13.752Z,3.50
2022-08-17T14:11:40.233Z,3.83
2022-08-17T14:14:06.777Z,4.30
2022-08-17T14:16:33.001Z,3.58
2022-08-17T14:18:59.232Z,3.80
2022-08-17T14:21:25.440Z,3.55
2022-08-17T14:23:54.771Z,3.60
2022-08-17T14:26:21.270Z,3.88
2022-08-17T14:28:56.317Z,4.32
2022-08-17T14:31:22.990Z,4.18
2022-08-17T14:33:49.201Z,3.50
2022-08-17T14:36:15.422Z,3.85
2022-08-17T14:38:41.622Z,3.40
2022-08-17T14:41:07.903Z,3.65
2022-08-17T14:43:34.441Z,3.92
2022-08-17T14:46:00.645Z,4.25
2022-08-17T14:48:28.238Z,3.67
2022-08-17T14:50:54.890Z,4.00
2022-08-17T14:53:21.181Z,4.10
2022-08-17T14:55:49.710Z,3.92
2022-08-17T14:58:15.991Z,3.92
2022-08-17T15:00:42.208Z,3.92
2022-08-17T15:03:08.506Z,3.97
2022-08-17T15:05:34.721Z,3.78
2022-08-17T15:08:00.968Z,4.10
2022-08-17T15:10:27.231Z,3.90
2022-08-17T15:12:53.569Z,3.17
2022-08-17T15:15:19.783Z,3.97
2022-08-17T15:17:46.259Z,4.28
2022-08-17T15:20:14.825Z,3.80
2022-08-17T15:22:41.496Z,3.50
2022-08-17T15:25:07.729Z,3.45
2022-08-17T15:27:33.984Z,3.95
2022-08-17T15:30:00.221Z,4.53
2022-08-17T15:32:26.470Z,3.63
2022-08-17T15:34:52.765Z,3.70
2022-08-17T15:37:19.077Z,3.80
2022-08-17T15:39:46.571Z,3.50
2022-08-17T15:42:12.923Z,4.28
2022-08-17T15:44:40.238Z,4.00
2022-08-17T15:47:06.524Z,4.22
2022-08-17T15:49:34.747Z,3.78
2022-08-17T15:52:01.045Z,4.00
2022-08-17T15:54:33.522Z,4.40
2022-08-17T15:57:00.996Z,4.13
2022-08-17T15:59:27.341Z,3.85
2022-08-17T16:03:15.378Z,4.43
2022-08-17T16:04:40.419Z,3.97
2022-08-17T16:07:10.298Z,3.92
2022-08-17T16:09:36.717Z,3.63
2022-08-17T16:12:02.971Z,4.15
2022-08-17T16:14:33.638Z,4.00
2022-08-17T16:17:01.518Z,4.10
2022-08-17T16:19:27.737Z,4.18
2022-08-17T16:21:53.967Z,3.72
2022-08-17T16:24:20.186Z,3.78
2022-08-17T16:26:46.414Z,3.63
2022-08-17T16:29:12.640Z,3.90
2022-08-17T16:31:38.940Z,4.13
2022-08-17T16:34:16.731Z,3.80
2022-08-17T16:36:51.728Z,4.22
2022-08-17T16:39:22.042Z,4.25
2022-08-17T16:41:48.246Z,4.45
2022-08-17T16:44:15.352Z,3.88
2022-08-17T16:46:45.868Z,4.00
2022-08-17T16:49:12.536Z,3.92
2022-08-17T16:51:55.990Z,3.70
2022-08-17T16:54:22.221Z,3.60
2022-08-17T16:56:48.423Z,3.83
2022-08-17T16:59:39.424Z,4.45
2022-08-17T17:02:00.892Z,3.78
2022-08-17T17:04:27.166Z,3.88
2022-08-17T17:06:53.403Z,3.92
2022-08-17T17:09:19.654Z,4.30
2022-08-17T17:11:45.903Z,4.55
2022-08-17T17:14:12.131Z,3.83
2022-08-17T17:16:39.999Z,4.00
2022-08-17T17:19:10.413Z,3.80
2022-08-17T17:21:36.641Z,4.07
2022-08-17T17:24:02.893Z,4.20
2022-08-17T17:26:29.254Z,4.07
2022-08-17T17:28:55.464Z,4.13
2022-08-17T17:31:21.982Z,4.85
2022-08-17T17:33:48.218Z,4.10
2022-08-17T17:36:14.430Z,4.13
2022-08-17T17:38:40.714Z,4.32
2022-08-17T17:41:26.479Z,4.30
2022-08-17T17:43:52.881Z,4.05
2022-08-17T17:46:28.554Z,4.18
2022-08-17T17:48:55.452Z,3.95
2022-08-17T17:51:55.722Z,4.10
2022-08-17T17:54:11.274Z,4.03
2022-08-17T17:56:44.060Z,4.03
2022-08-17T17:59:12.645Z,4.28
2022-08-17T18:01:39.370Z,4.03
2022-08-17T18:04:17.060Z,3.50
2022-08-17T18:06:47.298Z,4.57
2022-08-17T18:09:15.481Z,4.05
2022-08-17T18:11:51.380Z,4.15
2022-08-17T18:14:18.005Z,4.45
2022-08-17T18:16:44.187Z,4.20
2022-08-17T18:19:10.369Z,4.10
2022-08-17T18:21:36.599Z,4.72
2022-08-17T18:24:02.809Z,6.68
2022-08-17T18:26:29.007Z,4.65
2022-08-17T18:28:58.334Z,4.13
2022-08-17T18:31:24.513Z,4.57
2022-08-17T18:33:50.790Z,4.05
2022-08-17T18:36:16.987Z,4.35
2022-08-17T18:38:43.214Z,4.55
2022-08-17T18:41:09.367Z,4.55
2022-08-17T18:43:43.757Z,4.40
2022-08-17T18:46:28.109Z,3.92
2022-08-17T18:48:55.542Z,4.53
2022-08-17T18:51:40.267Z,4.15
2022-08-17T18:54:08.803Z,4.55
2022-08-17T18:56:35.018Z,4.13
2022-08-17T18:59:01.267Z,4.35
2022-08-17T19:01:41.735Z,4.78
2022-08-17T19:04:13.785Z,4.40
2022-08-17T19:06:40.038Z,4.15
2022-08-17T19:09:06.315Z,4.32
2022-08-17T19:19:30.763Z,4.25
2022-08-17T19:21:58.309Z,3.97
2022-08-17T19:24:34.526Z,4.15
2022-08-17T19:27:01.304Z,4.97
2022-08-17T19:32:13.829Z,4.80
2022-08-17T19:34:40.174Z,4.70
2022-08-17T19:37:06.412Z,4.20
2022-08-17T19:39:38.572Z,4.43
2022-08-17T19:42:04.957Z,4.80
2022-08-17T19:44:31.323Z,4.28
2022-08-17T19:47:00.985Z,4.03
2022-08-17T19:49:33.497Z,4.10
2022-08-17T19:52:09.160Z,4.20
2022-08-17T19:54:36.609Z,4.47
2022-08-17T19:57:02.852Z,4.07
2022-08-17T19:59:29.175Z,4.60
2022-08-17T20:02:02.096Z,4.35
2022-08-17T20:04:31.825Z,4.97
2022-08-17T20:06:59.032Z,4.60
2022-08-17T20:09:25.285Z,4.60
2022-08-17T20:11:59.712Z,4.30
2022-08-17T20:14:25.919Z,4.85
2022-08-17T20:16:52.139Z,4.60
2022-08-17T20:19:18.668Z,4.35
2022-08-17T20:21:49.138Z,4.30
2022-08-17T20:24:15.395Z,4.60
2022-08-17T20:26:42.718Z,4.80
2022-08-17T20:29:37.817Z,5.15
2022-08-17T20:32:09.049Z,5.70
2022-08-17T20:34:37.480Z,5.32
2022-08-17T20:37:04.373Z,4.70
2022-08-17T20:39:34.765Z,4.78
2022-08-17T20:42:31.380Z,4.70
2022-08-17T20:44:52.170Z,4.60
2022-08-17T20:47:18.358Z,4.90
2022-08-17T20:49:44.559Z,5.00
2022-08-17T20:52:10.736Z,5.07
2022-08-17T20:54:36.892Z,4.70
2022-08-17T20:57:06.185Z,4.72
2022-08-17T20:59:40.409Z,5.07
2022-08-17T21:02:19.106Z,5.53
2022-08-17T21:04:45.574Z,5.28
2022-08-17T21:07:11.799Z,5.97
2022-08-17T21:09:38.053Z,5.00
2022-08-17T21:12:05.652Z,5.25
2022-08-17T21:14:31.993Z,5.30
2022-08-17T21:16:58.203Z,5.05
2022-08-17T21:19:24.387Z,5.32
2022-08-17T21:21:50.546Z,5.00
2022-08-17T21:24:16.737Z,5.78
2022-08-17T21:26:50.444Z,5.10
2022-08-17T21:29:31.608Z,5.13
2022-08-17T21:31:59.187Z,4.90
2022-08-17T21:34:25.412Z,5.32
2022-08-17T21:36:51.603Z,5.15
2022-08-17T21:39:18.221Z,5.35
2022-08-17T21:41:49.424Z,5.70
2022-08-17T21:44:15.611Z,5.15
2022-08-17T21:46:41.784Z,5.40
2022-08-17T21:49:13.954Z,9.55
2022-08-17T21:51:40.593Z,6.25
2022-08-17T21:54:06.769Z,5.22
2022-08-17T21:56:34.606Z,5.57
2022-08-17T21:59:00.805Z,5.20
2022-08-17T22:01:27.073Z,5.55
2022-08-17T22:03:53.347Z,6.28
2022-08-17T22:06:19.543Z,5.57
2022-08-17T22:08:45.701Z,6.05
2022-08-17T22:11:11.887Z,5.72
2022-08-17T22:13:38.095Z,5.88
2022-08-17T22:16:04.275Z,5.40
2022-08-17T22:18:41.970Z,5.30
2022-08-17T22:21:08.144Z,5.47
2022-08-17T22:23:34.348Z,6.50
2022-08-17T22:26:00.522Z,5.22
2022-08-17T22:28:26.715Z,5.95
2022-08-17T22:30:52.877Z,5.22
2022-08-17T22:33:19.055Z,5.22
2022-08-17T22:35:45.246Z,5.93
2022-08-17T22:38:11.503Z,5.90
2022-08-17T22:40:37.677Z,6.18
2022-08-17T22:43:03.825Z,5.45
2022-08-17T22:45:30.233Z,6.10
2022-08-17T22:47:56.408Z,5.38
2022-08-17T22:50:22.614Z,5.38
2022-08-17T22:52:48.762Z,5.18
2022-08-17T22:55:14.929Z,5.22
2022-08-17T22:57:41.142Z,5.38
2022-08-17T23:00:07.318Z,5.20
2022-08-17T23:02:33.607Z,4.70
2022-08-17T23:04:59.879Z,5.20
2022-08-17T23:07:26.070Z,5.43
2022-08-17T23:09:52.259Z,5.35
2022-08-17T23:12:18.423Z,5.15
2022-08-17T23:14:44.605Z,5.88
2022-08-17T23:17:10.938Z,4.95
2022-08-17T23:19:37.133Z,5.38
2022-08-17T23:22:03.305Z,6.13
2022-08-17T23:24:29.493Z,5.03
2022-08-17T23:26:55.712Z,5.70
2022-08-17T23:29:21.914Z,5.18
2022-08-17T23:31:48.148Z,4.60
2022-08-17T23:34:14.343Z,4.95
2022-08-17T23:36:40.499Z,6.25
2022-08-17T23:39:06.675Z,4.82
2022-08-17T23:41:32.837Z,4.35
2022-08-17T23:43:59.011Z,4.20
2022-08-17T23:46:25.227Z,4.30
2022-08-17T23:48:51.514Z,4.38
2022-08-17T23:51:17.735Z,4.15
2022-08-17T23:53:43.937Z,4.38
2022-08-17T23:56:11.325Z,3.80
2022-08-17T23:58:37.805Z,4.10
